sensor_id;sensor_type;location;lat;lon;timestamp;pressure;altitude;pressure_sealevel;temperature;humidity
73101;BME280;61288;53.446;-2.266;2023-07-31T00:00:32;101760.91;;;14.59;100.00
73101;BME280;61288;53.446;-2.266;2023-07-31T00:02:57;101759.09;;;14.61;100.00
73101;BME280;61288;53.446;-2.266;2023-07-31T00:05:23;101755.56;;;14.62;100.00
73101;BME280;61288;53.446;-2.266;2023-07-31T00:07:48;101752.00;;;14.65;100.00
73101;BME280;61288;53.446;-2.266;2023-07-31T00:10:14;101753.75;;;14.64;100.00
73101;BME280;61288;53.446;-2.266;2023-07-31T00:12:42;101760.66;;;14.65;100.00
73101;BME280;61288;53.446;-2.266;2023-07-31T00:15:09;101756.22;;;14.67;100.00
73101;BME280;61288;53.446;-2.266;2023-07-31T00:17:35;101764.00;;;14.69;100.00
73101;BME280;61288;53.446;-2.266;2023-07-31T00:20:01;101776.13;;;14.70;100.00
73101;BME280;61288;53.446;-2.266;2023-07-31T00:22:27;101788.31;;;14.71;100.00
73101;BME280;61288;53.446;-2.266;2023-07-31T00:24:56;101797.75;;;14.73;100.00
73101;BME280;61288;53.446;-2.266;2023-07-31T00:27:23;101795.13;;;14.73;100.00
73101;BME280;61288;53.446;-2.266;2023-07-31T00:29:48;101803.78;;;14.76;100.00
73101;BME280;61288;53.446;-2.266;2023-07-31T00:32:14;101808.91;;;14.77;100.00
73101;BME280;61288;53.446;-2.266;2023-07-31T00:34:40;101801.09;;;14.77;100.00
73101;BME280;61288;53.446;-2.266;2023-07-31T00:37:06;101808.00;;;14.78;100.00
73101;BME280;61288;53.446;-2.266;2023-07-31T00:39:33;101800.13;;;14.80;100.00
73101;BME280;61288;53.446;-2.266;2023-07-31T00:42:00;101798.34;;;14.80;100.00
73101;BME280;61288;53.446;-2.266;2023-07-31T00:44:25;101806.13;;;14.82;100.00
73101;BME280;61288;53.446;-2.266;2023-07-31T00:46:56;101807.03;;;14.81;100.00
73101;BME280;61288;53.446;-2.266;2023-07-31T00:49:22;101806.13;;;14.82;100.00
73101;BME280;61288;53.446;-2.266;2023-07-31T00:51:48;101807.84;;;14.83;100.00
73101;BME280;61288;53.446;-2.266;2023-07-31T00:54:15;101795.63;;;14.83;100.00
73101;BME280;61288;53.446;-2.266;2023-07-31T00:56:41;101800.84;;;14.83;100.00
73101;BME280;61288;53.446;-2.266;2023-07-31T00:59:07;101803.41;;;14.85;100.00
73101;BME280;61288;53.446;-2.266;2023-07-31T01:01:33;101809.53;;;14.84;100.00
73101;BME280;61288;53.446;-2.266;2023-07-31T01:03:59;101802.53;;;14.84;100.00
73101;BME280;61288;53.446;-2.266;2023-07-31T01:09:29;101839.06;;;14.84;100.00
73101;BME280;61288;53.446;-2.266;2023-07-31T01:12:03;101857.31;;;14.84;100.00
73101;BME280;61288;53.446;-2.266;2023-07-31T01:14:30;101852.97;;;14.85;100.00
73101;BME280;61288;53.446;-2.266;2023-07-31T01:16:56;101887.72;;;14.85;100.00
73101;BME280;61288;53.446;-2.266;2023-07-31T01:19:24;101983.44;;;14.85;100.00
73101;BME280;61288;53.446;-2.266;2023-07-31T01:22:16;102160.88;;;14.85;100.00
73101;BME280;61288;53.446;-2.266;2023-07-31T01:27:25;102190.38;;;14.87;100.00
73101;BME280;61288;53.446;-2.266;2023-07-31T01:30:01;102199.97;;;14.86;100.00
73101;BME280;61288;53.446;-2.266;2023-07-31T01:32:29;102203.44;;;14.87;100.00
73101;BME280;61288;53.446;-2.266;2023-07-31T01:34:56;102212.97;;;14.88;100.00
73101;BME280;61288;53.446;-2.266;2023-07-31T01:37:28;102227.72;;;14.89;100.00
73101;BME280;61288;53.446;-2.266;2023-07-31T01:39:55;102226.81;;;14.90;100.00
73101;BME280;61288;53.446;-2.266;2023-07-31T01:42:24;102252.91;;;14.90;100.00
73101;BME280;61288;53.446;-2.266;2023-07-31T01:44:49;102347.69;;;14.91;100.00
73101;BME280;61288;53.446;-2.266;2023-07-31T01:47:15;102359.00;;;14.91;100.00
73101;BME280;61288;53.446;-2.266;2023-07-31T01:49:41;102353.75;;;14.93;100.00
73101;BME280;61288;53.446;-2.266;2023-07-31T01:52:07;102360.69;;;14.94;100.00
73101;BME280;61288;53.446;-2.266;2023-07-31T01:54:32;102366.75;;;14.94;100.00
73101;BME280;61288;53.446;-2.266;2023-07-31T01:56:59;102358.00;;;14.95;100.00
73101;BME280;61288;53.446;-2.266;2023-07-31T01:59:24;102359.72;;;14.96;100.00
73101;BME280;61288;53.446;-2.266;2023-07-31T02:01:50;102359.72;;;14.96;100.00
73101;BME280;61288;53.446;-2.266;2023-07-31T02:04:16;102361.41;;;14.97;100.00
73101;BME280;61288;53.446;-2.266;2023-07-31T02:06:41;102361.41;;;14.97;100.00
73101;BME280;61288;53.446;-2.266;2023-07-31T02:09:07;102363.13;;;14.98;100.00
73101;BME280;61288;53.446;-2.266;2023-07-31T02:11:32;102361.31;;;15.00;100.00
73101;BME280;61288;53.446;-2.266;2023-07-31T02:13:58;102362.22;;;14.99;100.00
73101;BME280;61288;53.446;-2.266;2023-07-31T02:16:24;102366.53;;;15.00;100.00
73101;BME280;61288;53.446;-2.266;2023-07-31T02:18:50;102373.47;;;15.01;100.00
73101;BME280;61288;53.446;-2.266;2023-07-31T02:21:16;102364.78;;;15.01;100.00
73101;BME280;61288;53.446;-2.266;2023-07-31T02:23:41;102364.72;;;15.02;100.00
73101;BME280;61288;53.446;-2.266;2023-07-31T02:26:07;102369.03;;;15.04;100.00
73101;BME280;61288;53.446;-2.266;2023-07-31T02:28:33;102375.97;;;15.05;100.00
73101;BME280;61288;53.446;-2.266;2023-07-31T02:30:59;102377.69;;;15.06;100.00
73101;BME280;61288;53.446;-2.266;2023-07-31T02:33:24;102373.31;;;15.06;100.00
73101;BME280;61288;53.446;-2.266;2023-07-31T02:35:50;102383.69;;;15.08;100.00
73101;BME280;61288;53.446;-2.266;2023-07-31T02:38:16;102381.09;;;15.08;100.00
73101;BME280;61288;53.446;-2.266;2023-07-31T02:40:42;102372.38;;;15.09;100.00
73101;BME280;61288;53.446;-2.266;2023-07-31T02:43:08;102375.00;;;15.09;100.00
73101;BME280;61288;53.446;-2.266;2023-07-31T02:45:35;102382.75;;;15.10;100.00
73101;BME280;61288;53.446;-2.266;2023-07-31T02:48:01;102376.69;;;15.10;100.00
73101;BME280;61288;53.446;-2.266;2023-07-31T02:50:27;102380.16;;;15.10;100.00
73101;BME280;61288;53.446;-2.266;2023-07-31T02:52:58;102385.34;;;15.12;100.00
73101;BME280;61288;53.446;-2.266;2023-07-31T02:55:23;102392.25;;;15.13;100.00
73101;BME280;61288;53.446;-2.266;2023-07-31T02:57:49;102396.63;;;15.12;100.00
73101;BME280;61288;53.446;-2.266;2023-07-31T03:00:15;102391.41;;;15.12;100.00
73101;BME280;61288;53.446;-2.266;2023-07-31T03:02:40;102394.00;;;15.12;100.00
73101;BME280;61288;53.446;-2.266;2023-07-31T03:05:06;102401.84;;;15.12;100.00
73101;BME280;61288;53.446;-2.266;2023-07-31T03:07:31;102408.75;;;15.13;100.00
73101;BME280;61288;53.446;-2.266;2023-07-31T03:09:57;102426.19;;;15.13;100.00
73101;BME280;61288;53.446;-2.266;2023-07-31T03:12:23;102434.88;;;15.13;100.00
73101;BME280;61288;53.446;-2.266;2023-07-31T03:14:48;102439.19;;;15.14;100.00
73101;BME280;61288;53.446;-2.266;2023-07-31T03:17:15;102443.50;;;15.15;100.00
73101;BME280;61288;53.446;-2.266;2023-07-31T03:19:40;102446.13;;;15.15;100.00
73101;BME280;61288;53.446;-2.266;2023-07-31T03:22:06;102447.91;;;15.15;100.00
73101;BME280;61288;53.446;-2.266;2023-07-31T03:24:31;102454.03;;;15.14;100.00
73101;BME280;61288;53.446;-2.266;2023-07-31T03:26:57;102463.50;;;15.16;100.00
73101;BME280;61288;53.446;-2.266;2023-07-31T03:29:22;102468.78;;;15.15;100.00
73101;BME280;61288;53.446;-2.266;2023-07-31T03:31:49;102493.13;;;15.15;100.00
73101;BME280;61288;53.446;-2.266;2023-07-31T03:34:14;110454.06;;;15.15;100.00
73101;BME280;61288;53.446;-2.266;2023-07-31T03:36:40;112788.31;;;15.15;100.00
73101;BME280;61288;53.446;-2.266;2023-07-31T03:39:05;113493.47;;;15.16;100.00
73101;BME280;61288;53.446;-2.266;2023-07-31T03:41:31;113542.25;;;15.15;100.00
73101;BME280;61288;53.446;-2.266;2023-07-31T03:43:58;113642.72;;;15.16;100.00
73101;BME280;61288;53.446;-2.266;2023-07-31T03:46:24;113780.75;;;15.17;100.00
73101;BME280;61288;53.446;-2.266;2023-07-31T03:48:50;114051.16;;;15.16;100.00
73101;BME280;61288;53.446;-2.266;2023-07-31T03:51:16;114358.47;;;15.16;100.00
73101;BME280;61288;53.446;-2.266;2023-07-31T03:53:43;114670.81;;;15.15;100.00
73101;BME280;61288;53.446;-2.266;2023-07-31T03:56:10;114849.88;;;15.16;100.00
73101;BME280;61288;53.446;-2.266;2023-07-31T03:58:36;115152.72;;;15.15;100.00
73101;BME280;61288;53.446;-2.266;2023-07-31T04:01:02;115630.13;;;15.14;100.00
73101;BME280;61288;53.446;-2.266;2023-07-31T04:03:28;115945.44;;;15.15;100.00
73101;BME280;61288;53.446;-2.266;2023-07-31T04:05:55;116341.03;;;15.15;100.00
73101;BME280;61288;53.446;-2.266;2023-07-31T04:08:23;118350.97;;;15.15;100.00
73101;BME280;61288;53.446;-2.266;2023-07-31T04:10:48;118608.81;;;15.15;100.00
73101;BME280;61288;53.446;-2.266;2023-07-31T04:13:14;118729.41;;;15.15;100.00
73101;BME280;61288;53.446;-2.266;2023-07-31T04:15:40;118897.19;;;15.15;100.00
73101;BME280;61288;53.446;-2.266;2023-07-31T04:18:06;119069.22;;;15.15;100.00
73101;BME280;61288;53.446;-2.266;2023-07-31T04:20:32;119179.34;;;15.15;100.00
73101;BME280;61288;53.446;-2.266;2023-07-31T04:22:57;119270.09;;;15.14;100.00
73101;BME280;61288;53.446;-2.266;2023-07-31T04:25:25;119295.69;;;15.15;100.00
73101;BME280;61288;53.446;-2.266;2023-07-31T04:27:50;119322.91;;;15.16;100.00
73101;BME280;61288;53.446;-2.266;2023-07-31T04:30:16;119361.31;;;15.20;100.00
73101;BME280;61288;53.446;-2.266;2023-07-31T04:32:42;119379.06;;;15.21;100.00
73101;BME280;61288;53.446;-2.266;2023-07-31T04:35:07;119286.94;;;15.19;100.00
73101;BME280;61288;53.446;-2.266;2023-07-31T04:37:33;119230.22;;;15.20;100.00
73101;BME280;61288;53.446;-2.266;2023-07-31T04:39:58;119150.94;;;15.21;100.00
73101;BME280;61288;53.446;-2.266;2023-07-31T04:42:24;119023.72;;;15.19;100.00
73101;BME280;61288;53.446;-2.266;2023-07-31T04:44:53;118883.19;;;15.19;100.00
73101;BME280;61288;53.446;-2.266;2023-07-31T04:47:19;118795.31;;;15.17;100.00
73101;BME280;61288;53.446;-2.266;2023-07-31T04:49:45;118701.91;;;15.18;100.00
73101;BME280;61288;53.446;-2.266;2023-07-31T04:52:10;118603.94;;;15.17;100.00
73101;BME280;61288;53.446;-2.266;2023-07-31T04:54:39;118537.78;;;15.18;100.00
73101;BME280;61288;53.446;-2.266;2023-07-31T04:57:05;118536.13;;;15.19;100.00
73101;BME280;61288;53.446;-2.266;2023-07-31T04:59:31;118543.97;;;15.19;100.00
73101;BME280;61288;53.446;-2.266;2023-07-31T05:01:56;118559.06;;;15.20;100.00
73101;BME280;61288;53.446;-2.266;2023-07-31T05:04:22;118568.91;;;15.21;100.00
73101;BME280;61288;53.446;-2.266;2023-07-31T05:06:47;118567.94;;;15.20;100.00
73101;BME280;61288;53.446;-2.266;2023-07-31T05:09:13;118520.09;;;15.21;100.00
73101;BME280;61288;53.446;-2.266;2023-07-31T05:11:39;118487.63;;;15.21;100.00
73101;BME280;61288;53.446;-2.266;2023-07-31T05:14:06;118440.44;;;15.21;100.00
73101;BME280;61288;53.446;-2.266;2023-07-31T05:16:31;118382.78;;;15.21;100.00
73101;BME280;61288;53.446;-2.266;2023-07-31T05:18:57;118366.78;;;15.23;100.00
73101;BME280;61288;53.446;-2.266;2023-07-31T05:21:22;118335.31;;;15.23;100.00
73101;BME280;61288;53.446;-2.266;2023-07-31T05:23:48;118204.59;;;15.25;100.00
73101;BME280;61288;53.446;-2.266;2023-07-31T05:26:14;118012.53;;;15.22;100.00
73101;BME280;61288;53.446;-2.266;2023-07-31T05:28:39;117574.16;;;15.23;100.00
73101;BME280;61288;53.446;-2.266;2023-07-31T05:31:05;117183.63;;;15.23;100.00
73101;BME280;61288;53.446;-2.266;2023-07-31T05:33:32;116723.47;;;15.19;100.00
73101;BME280;61288;53.446;-2.266;2023-07-31T05:35:57;116331.41;;;15.20;100.00
73101;BME280;61288;53.446;-2.266;2023-07-31T05:38:23;115851.69;;;15.18;100.00
73101;BME280;61288;53.446;-2.266;2023-07-31T05:40:48;115595.50;;;15.21;100.00
73101;BME280;61288;53.446;-2.266;2023-07-31T05:43:14;115483.56;;;15.20;100.00
73101;BME280;61288;53.446;-2.266;2023-07-31T05:45:40;115448.81;;;15.21;100.00
73101;BME280;61288;53.446;-2.266;2023-07-31T05:48:06;115146.88;;;15.22;100.00
73101;BME280;61288;53.446;-2.266;2023-07-31T05:50:31;114998.78;;;15.24;100.00
73101;BME280;61288;53.446;-2.266;2023-07-31T05:52:57;114614.97;;;15.26;100.00
73101;BME280;61288;53.446;-2.266;2023-07-31T05:55:23;114197.81;;;15.27;100.00
73101;BME280;61288;53.446;-2.266;2023-07-31T05:57:49;114007.34;;;15.32;100.00
73101;BME280;61288;53.446;-2.266;2023-07-31T06:00:15;113659.22;;;15.34;100.00
73101;BME280;61288;53.446;-2.266;2023-07-31T06:02:40;113117.13;;;15.34;100.00
73101;BME280;61288;53.446;-2.266;2023-07-31T06:05:06;112489.84;;;15.36;100.00
73101;BME280;61288;53.446;-2.266;2023-07-31T06:07:32;111915.75;;;15.37;100.00
73101;BME280;61288;53.446;-2.266;2023-07-31T06:09:57;111153.84;;;15.35;100.00
73101;BME280;61288;53.446;-2.266;2023-07-31T06:12:28;110526.63;;;15.36;100.00
73101;BME280;61288;53.446;-2.266;2023-07-31T06:14:54;110130.69;;;15.37;100.00
73101;BME280;61288;53.446;-2.266;2023-07-31T06:17:20;109737.41;;;15.38;100.00
73101;BME280;61288;53.446;-2.266;2023-07-31T06:19:47;109241.06;;;15.37;100.00
73101;BME280;61288;53.446;-2.266;2023-07-31T06:22:13;108457.81;;;15.33;100.00
73101;BME280;61288;53.446;-2.266;2023-07-31T06:24:38;108019.31;;;15.34;100.00
73101;BME280;61288;53.446;-2.266;2023-07-31T06:27:04;107618.31;;;15.33;100.00
73101;BME280;61288;53.446;-2.266;2023-07-31T06:29:31;107304.50;;;15.33;100.00
73101;BME280;61288;53.446;-2.266;2023-07-31T06:31:56;106839.00;;;15.30;100.00
73101;BME280;61288;53.446;-2.266;2023-07-31T06:34:22;106546.19;;;15.30;100.00
73101;BME280;61288;53.446;-2.266;2023-07-31T06:36:47;106337.06;;;15.30;100.00
73101;BME280;61288;53.446;-2.266;2023-07-31T06:39:13;106169.69;;;15.28;100.00
73101;BME280;61288;53.446;-2.266;2023-07-31T06:41:39;105996.34;;;15.29;100.00
73101;BME280;61288;53.446;-2.266;2023-07-31T06:44:04;105738.38;;;15.25;100.00
73101;BME280;61288;53.446;-2.266;2023-07-31T06:46:30;105675.66;;;15.25;100.00
73101;BME280;61288;53.446;-2.266;2023-07-31T06:48:55;105338.47;;;15.22;100.00
73101;BME280;61288;53.446;-2.266;2023-07-31T06:51:21;105326.28;;;15.23;100.00
73101;BME280;61288;53.446;-2.266;2023-07-31T06:53:46;105363.75;;;15.23;100.00
73101;BME280;61288;53.446;-2.266;2023-07-31T06:56:12;105342.84;;;15.23;100.00
73101;BME280;61288;53.446;-2.266;2023-07-31T06:58:37;105213.91;;;15.23;100.00
73101;BME280;61288;53.446;-2.266;2023-07-31T07:01:03;105196.50;;;15.23;100.00
73101;BME280;61288;53.446;-2.266;2023-07-31T07:03:28;104976.09;;;15.20;100.00
73101;BME280;61288;53.446;-2.266;2023-07-31T07:05:54;104457.94;;;15.14;100.00
73101;BME280;61288;53.446;-2.266;2023-07-31T07:08:20;104122.72;;;15.15;100.00
73101;BME280;61288;53.446;-2.266;2023-07-31T07:10:46;104033.00;;;15.20;100.00
73101;BME280;61288;53.446;-2.266;2023-07-31T07:13:12;104006.84;;;15.24;100.00
73101;BME280;61288;53.446;-2.266;2023-07-31T07:15:38;103952.00;;;15.24;100.00
73101;BME280;61288;53.446;-2.266;2023-07-31T07:18:04;103783.97;;;15.22;100.00
73101;BME280;61288;53.446;-2.266;2023-07-31T07:20:29;103671.69;;;15.19;100.00
73101;BME280;61288;53.446;-2.266;2023-07-31T07:22:55;103547.31;;;15.12;100.00
73101;BME280;61288;53.446;-2.266;2023-07-31T07:25:20;103485.47;;;15.14;100.00
73101;BME280;61288;53.446;-2.266;2023-07-31T07:27:46;103418.50;;;15.10;100.00
73101;BME280;61288;53.446;-2.266;2023-07-31T07:30:11;103380.22;;;15.07;100.00
73101;BME280;61288;53.446;-2.266;2023-07-31T07:32:37;103338.44;;;15.07;100.00
73101;BME280;61288;53.446;-2.266;2023-07-31T07:35:03;103314.94;;;15.07;100.00
73101;BME280;61288;53.446;-2.266;2023-07-31T07:37:28;103278.41;;;15.06;100.00
73101;BME280;61288;53.446;-2.266;2023-07-31T07:39:54;103244.47;;;15.06;100.00
73101;BME280;61288;53.446;-2.266;2023-07-31T07:42:19;103213.13;;;15.07;100.00
73101;BME280;61288;53.446;-2.266;2023-07-31T07:44:45;103182.63;;;15.08;100.00
73101;BME280;61288;53.446;-2.266;2023-07-31T07:47:10;103192.22;;;15.07;100.00
73101;BME280;61288;53.446;-2.266;2023-07-31T07:49:36;103168.72;;;15.09;100.00
73101;BME280;61288;53.446;-2.266;2023-07-31T07:52:02;103123.47;;;15.07;100.00
73101;BME280;61288;53.446;-2.266;2023-07-31T07:54:28;103079.03;;;15.10;100.00
73101;BME280;61288;53.446;-2.266;2023-07-31T07:56:53;103051.09;;;15.13;100.00
73101;BME280;61288;53.446;-2.266;2023-07-31T07:59:19;103031.84;;;15.18;100.00
73101;BME280;61288;53.446;-2.266;2023-07-31T08:01:44;103010.84;;;15.22;100.00
73101;BME280;61288;53.446;-2.266;2023-07-31T08:04:10;102940.38;;;15.21;100.00
73101;BME280;61288;53.446;-2.266;2023-07-31T08:06:36;102890.63;;;15.27;100.00
73101;BME280;61288;53.446;-2.266;2023-07-31T08:09:01;102849.56;;;15.32;100.00
73101;BME280;61288;53.446;-2.266;2023-07-31T08:11:31;102846.00;;;15.35;100.00
73101;BME280;61288;53.446;-2.266;2023-07-31T08:13:57;102805.03;;;15.37;100.00
73101;BME280;61288;53.446;-2.266;2023-07-31T08:16:22;102812.75;;;15.40;100.00
73101;BME280;61288;53.446;-2.266;2023-07-31T08:18:48;102802.19;;;15.44;100.00
73101;BME280;61288;53.446;-2.266;2023-07-31T08:21:14;102758.66;;;15.45;100.00
73101;BME280;61288;53.446;-2.266;2023-07-31T08:23:40;102712.38;;;15.49;100.00
73101;BME280;61288;53.446;-2.266;2023-07-31T08:26:08;102663.56;;;15.51;100.00
73101;BME280;61288;53.446;-2.266;2023-07-31T08:28:39;102654.97;;;15.47;100.00
73101;BME280;61288;53.446;-2.266;2023-07-31T08:31:05;102581.94;;;15.44;100.00
73101;BME280;61288;53.446;-2.266;2023-07-31T08:33:31;102535.75;;;15.44;100.00
73101;BME280;61288;53.446;-2.266;2023-07-31T08:35:56;102484.28;;;15.48;100.00
73101;BME280;61288;53.446;-2.266;2023-07-31T08:38:22;102448.53;;;15.49;100.00
73101;BME280;61288;53.446;-2.266;2023-07-31T08:40:50;102398.84;;;15.50;100.00
73101;BME280;61288;53.446;-2.266;2023-07-31T08:43:18;102381.38;;;15.52;100.00
73101;BME280;61288;53.446;-2.266;2023-07-31T08:45:44;102356.09;;;15.53;100.00
73101;BME280;61288;53.446;-2.266;2023-07-31T08:48:11;102383.97;;;15.52;100.00
73101;BME280;61288;53.446;-2.266;2023-07-31T08:50:38;102352.53;;;15.55;100.00
73101;BME280;61288;53.446;-2.266;2023-07-31T08:53:04;102322.09;;;15.54;100.00
73101;BME280;61288;53.446;-2.266;2023-07-31T08:55:32;102329.84;;;15.56;100.00
73101;BME280;61288;53.446;-2.266;2023-07-31T08:57:58;102303.03;;;15.51;100.00
73101;BME280;61288;53.446;-2.266;2023-07-31T09:00:24;102274.38;;;15.49;100.00
73101;BME280;61288;53.446;-2.266;2023-07-31T09:03:01;102247.50;;;15.45;100.00
73101;BME280;61288;53.446;-2.266;2023-07-31T09:05:29;102217.22;;;15.40;100.00
73101;BME280;61288;53.446;-2.266;2023-07-31T09:07:56;102180.78;;;15.37;100.00
73101;BME280;61288;53.446;-2.266;2023-07-31T09:10:22;102169.53;;;15.35;100.00
73101;BME280;61288;53.446;-2.266;2023-07-31T09:12:49;102149.63;;;15.32;100.00
73101;BME280;61288;53.446;-2.266;2023-07-31T09:15:16;102147.94;;;15.31;100.00
73101;BME280;61288;53.446;-2.266;2023-07-31T09:17:42;102128.09;;;15.25;100.00
73101;BME280;61288;53.446;-2.266;2023-07-31T09:20:19;102104.56;;;15.27;100.00
73101;BME280;61288;53.446;-2.266;2023-07-31T09:22:46;102099.34;;;15.27;100.00
73101;BME280;61288;53.446;-2.266;2023-07-31T09:25:26;102096.66;;;15.28;100.00
73101;BME280;61288;53.446;-2.266;2023-07-31T09:28:21;102085.41;;;15.26;100.00
73101;BME280;61288;53.446;-2.266;2023-07-31T09:30:56;102073.31;;;15.24;100.00
73101;BME280;61288;53.446;-2.266;2023-07-31T09:33:23;102056.06;;;15.20;100.00
73101;BME280;61288;53.446;-2.266;2023-07-31T09:35:48;102021.34;;;15.18;100.00
73101;BME280;61288;53.446;-2.266;2023-07-31T09:38:16;101977.88;;;15.16;100.00
73101;BME280;61288;53.446;-2.266;2023-07-31T09:40:43;101970.91;;;15.17;100.00
73101;BME280;61288;53.446;-2.266;2023-07-31T09:43:11;101957.84;;;15.17;100.00
73101;BME280;61288;53.446;-2.266;2023-07-31T09:45:38;101953.34;;;15.21;100.00
73101;BME280;61288;53.446;-2.266;2023-07-31T09:48:17;101950.84;;;15.18;100.00
73101;BME280;61288;53.446;-2.266;2023-07-31T09:50:44;101977.81;;;15.18;100.00
73101;BME280;61288;53.446;-2.266;2023-07-31T09:53:10;101965.69;;;15.17;100.00
73101;BME280;61288;53.446;-2.266;2023-07-31T09:55:37;101937.75;;;15.19;100.00
73101;BME280;61288;53.446;-2.266;2023-07-31T09:58:08;101932.41;;;15.22;100.00
73101;BME280;61288;53.446;-2.266;2023-07-31T10:00:34;101929.72;;;15.24;100.00
73101;BME280;61288;53.446;-2.266;2023-07-31T10:03:03;101928.81;;;15.25;100.00
73101;BME280;61288;53.446;-2.266;2023-07-31T10:05:37;101916.66;;;15.24;100.00
73101;BME280;61288;53.446;-2.266;2023-07-31T10:08:08;101893.06;;;15.27;100.00
73101;BME280;61288;53.446;-2.266;2023-07-31T10:10:36;101880.78;;;15.29;100.00
73101;BME280;61288;53.446;-2.266;2023-07-31T10:13:02;101862.50;;;15.29;100.00
73101;BME280;61288;53.446;-2.266;2023-07-31T10:15:28;101848.53;;;15.30;100.00
73101;BME280;61288;53.446;-2.266;2023-07-31T10:17:55;101826.72;;;15.31;100.00
73101;BME280;61288;53.446;-2.266;2023-07-31T10:20:22;101811.91;;;15.31;100.00
73101;BME280;61288;53.446;-2.266;2023-07-31T10:22:51;101784.94;;;15.31;100.00
73101;BME280;61288;53.446;-2.266;2023-07-31T10:25:18;101775.47;;;15.28;100.00
73101;BME280;61288;53.446;-2.266;2023-07-31T10:27:45;101739.78;;;15.29;100.00
73101;BME280;61288;53.446;-2.266;2023-07-31T10:30:15;101714.72;;;15.25;100.00
73101;BME280;61288;53.446;-2.266;2023-07-31T10:32:43;101698.19;;;15.24;100.00
73101;BME280;61288;53.446;-2.266;2023-07-31T10:35:10;101679.94;;;15.24;100.00
73101;BME280;61288;53.446;-2.266;2023-07-31T10:37:41;101664.13;;;15.27;100.00
73101;BME280;61288;53.446;-2.266;2023-07-31T10:40:11;101659.75;;;15.28;100.00
73101;BME280;61288;53.446;-2.266;2023-07-31T10:42:51;101652.63;;;15.31;100.00
73101;BME280;61288;53.446;-2.266;2023-07-31T10:45:42;101644.72;;;15.33;100.00
73101;BME280;61288;53.446;-2.266;2023-07-31T10:48:15;101624.53;;;15.37;100.00
73101;BME280;61288;53.446;-2.266;2023-07-31T10:50:51;101619.03;;;15.43;100.00
73101;BME280;61288;53.446;-2.266;2023-07-31T10:53:29;101590.16;;;15.46;100.00
73101;BME280;61288;53.446;-2.266;2023-07-31T10:55:59;101557.75;;;15.50;100.00
73101;BME280;61288;53.446;-2.266;2023-07-31T10:58:27;101515.97;;;15.50;100.00
73101;BME280;61288;53.446;-2.266;2023-07-31T11:00:57;101489.75;;;15.52;100.00
73101;BME280;61288;53.446;-2.266;2023-07-31T11:06:06;101415.81;;;15.51;100.00
73101;BME280;61288;53.446;-2.266;2023-07-31T11:08:33;101402.75;;;15.51;100.00
73101;BME280;61288;53.446;-2.266;2023-07-31T11:13:49;101378.47;;;15.49;100.00
73101;BME280;61288;53.446;-2.266;2023-07-31T11:16:16;101360.34;;;15.46;100.00
73101;BME280;61288;53.446;-2.266;2023-07-31T11:18:48;101331.63;;;15.46;100.00
73101;BME280;61288;53.446;-2.266;2023-07-31T11:21:21;101300.34;;;15.44;100.00
73101;BME280;61288;53.446;-2.266;2023-07-31T11:23:48;101273.47;;;15.42;100.00
73101;BME280;61288;53.446;-2.266;2023-07-31T11:26:15;101259.72;;;15.39;100.00
73101;BME280;61288;53.446;-2.266;2023-07-31T11:28:41;101239.69;;;15.39;100.00
73101;BME280;61288;53.446;-2.266;2023-07-31T11:31:10;101212.59;;;15.42;100.00
73101;BME280;61288;53.446;-2.266;2023-07-31T11:33:36;101212.59;;;15.42;100.00
73101;BME280;61288;53.446;-2.266;2023-07-31T11:36:01;101218.63;;;15.42;100.00
73101;BME280;61288;53.446;-2.266;2023-07-31T11:38:29;101196.00;;;15.43;100.00
73101;BME280;61288;53.446;-2.266;2023-07-31T11:41:00;101186.47;;;15.42;100.00
73101;BME280;61288;53.446;-2.266;2023-07-31T11:43:28;101184.00;;;15.39;100.00
73101;BME280;61288;53.446;-2.266;2023-07-31T11:45:58;101171.19;;;15.34;100.00
73101;BME280;61288;53.446;-2.266;2023-07-31T11:48:29;101148.69;;;15.31;100.00
73101;BME280;61288;53.446;-2.266;2023-07-31T11:50:59;101166.16;;;15.31;100.00
73101;BME280;61288;53.446;-2.266;2023-07-31T11:53:26;101169.53;;;15.33;100.00
73101;BME280;61288;53.446;-2.266;2023-07-31T11:55:55;101168.66;;;15.33;100.00
73101;BME280;61288;53.446;-2.266;2023-07-31T11:58:23;101160.81;;;15.33;100.00
73101;BME280;61288;53.446;-2.266;2023-07-31T12:00:48;101176.44;;;15.34;100.00
73101;BME280;61288;53.446;-2.266;2023-07-31T12:03:15;101173.88;;;15.33;100.00
73101;BME280;61288;53.446;-2.266;2023-07-31T12:05:41;101185.19;;;15.33;100.00
73101;BME280;61288;53.446;-2.266;2023-07-31T12:08:15;101187.09;;;15.29;100.00
73101;BME280;61288;53.446;-2.266;2023-07-31T12:10:43;101201.06;;;15.28;100.00
73101;BME280;61288;53.446;-2.266;2023-07-31T12:13:19;101210.59;;;15.29;100.00
73101;BME280;61288;53.446;-2.266;2023-07-31T12:15:46;101203.78;;;15.27;100.00
73101;BME280;61288;53.446;-2.266;2023-07-31T12:18:20;101211.75;;;15.24;100.00
73101;BME280;61288;53.446;-2.266;2023-07-31T12:20:48;101198.63;;;15.25;100.00
73101;BME280;61288;53.446;-2.266;2023-07-31T12:23:22;101197.00;;;15.23;100.00
73101;BME280;61288;53.446;-2.266;2023-07-31T12:28:25;101207.44;;;15.23;100.00
73101;BME280;61288;53.446;-2.266;2023-07-31T12:30:51;101217.81;;;15.24;100.00
73101;BME280;61288;53.446;-2.266;2023-07-31T12:33:18;101216.84;;;15.27;100.00
73101;BME280;61288;53.446;-2.266;2023-07-31T12:35:45;101213.47;;;15.25;100.00
73101;BME280;61288;53.446;-2.266;2023-07-31T12:38:12;101217.75;;;15.26;100.00
73101;BME280;61288;53.446;-2.266;2023-07-31T12:40:38;101220.44;;;15.24;100.00
73101;BME280;61288;53.446;-2.266;2023-07-31T12:43:04;101232.56;;;15.25;100.00